createdAt,value
2019-04-05T00:04:47.752Z,4.97
2019-04-05T00:09:51.206Z,4.25
2019-04-05T00:14:54.665Z,4.70
2019-04-05T00:19:58.287Z,6.30
2019-04-05T00:25:01.745Z,5.90
2019-04-05T00:30:10.145Z,5.25
2019-04-05T00:35:13.604Z,4.10
2019-04-05T00:40:17.228Z,5.40
2019-04-05T00:45:27.957Z,5.25
2019-04-05T00:50:26.138Z,4.65
2019-04-05T00:55:29.586Z,3.70
2019-04-05T01:00:33.069Z,4.53
2019-04-05T01:05:36.759Z,3.75
2019-04-05T01:10:40.217Z,3.75
2019-04-05T01:15:43.676Z,4.30
2019-04-05T01:20:49.078Z,3.85
2019-04-05T01:25:54.250Z,4.40
2019-04-05T01:30:57.774Z,3.75
2019-04-05T01:36:01.217Z,4.53
2019-04-05T01:41:04.749Z,4.92
2019-04-05T01:46:08.635Z,3.85
2019-04-05T01:51:12.091Z,4.08
2019-04-05T01:56:15.574Z,3.60
2019-04-05T02:01:19.269Z,4.55
2019-04-05T02:06:22.728Z,4.28
2019-04-05T02:11:26.249Z,4.42
2019-04-05T02:16:29.774Z,2.80
2019-04-05T02:21:33.227Z,3.70
2019-04-05T02:26:36.675Z,4.07
2019-04-05T02:31:40.196Z,3.90
2019-04-05T02:36:43.643Z,4.25
2019-04-05T02:41:48.634Z,5.00
2019-04-05T02:46:54.831Z,4.22
2019-04-05T02:52:00.726Z,3.70
2019-04-05T02:57:04.711Z,4.00
2019-04-05T03:02:08.922Z,4.12
2019-04-05T03:07:13.939Z,4.28
2019-04-05T03:12:19.232Z,3.72
2019-04-05T03:17:23.897Z,3.75
2019-04-05T03:22:29.689Z,4.70
2019-04-05T03:27:36.230Z,3.67
2019-04-05T03:32:39.688Z,3.35
2019-04-05T03:37:43.385Z,3.75
2019-04-05T03:42:46.838Z,2.98
2019-04-05T03:47:50.395Z,4.40
2019-04-05T03:52:53.829Z,3.98
2019-04-05T03:57:57.347Z,3.72
2019-04-05T04:03:01.179Z,9.40
2019-04-05T04:08:04.974Z,4.90
2019-04-05T04:13:08.697Z,5.33
2019-04-05T04:18:12.329Z,5.12
2019-04-05T04:23:17.013Z,5.80
2019-04-05T04:28:21.408Z,7.97
2019-04-05T04:33:24.935Z,3.58
2019-04-05T04:38:28.546Z,6.10
2019-04-05T04:43:32.002Z,3.80
2019-04-05T04:48:36.698Z,3.80
2019-04-05T04:53:40.687Z,4.22
2019-04-05T04:58:46.290Z,4.62
2019-04-05T05:03:49.618Z,5.67
2019-04-05T05:08:53.089Z,4.35
2019-04-05T05:13:56.781Z,5.30
2019-04-05T05:19:01.292Z,3.98
2019-04-05T05:24:05.374Z,4.05
2019-04-05T05:29:08.818Z,3.70
2019-04-05T05:34:12.702Z,4.03
2019-04-05T05:39:16.434Z,3.98
2019-04-05T05:44:19.885Z,4.55
2019-04-05T05:49:23.335Z,5.95
2019-04-05T05:54:26.795Z,4.37
2019-04-05T05:59:30.868Z,4.45
2019-04-05T06:04:34.378Z,4.50
2019-04-05T06:09:37.841Z,7.33
2019-04-05T06:14:41.297Z,6.08
2019-04-05T06:19:44.785Z,3.05
2019-04-05T06:24:48.239Z,3.95
2019-04-05T06:29:51.702Z,3.58
2019-04-05T06:34:55.162Z,5.08
2019-04-05T06:39:58.617Z,3.17
2019-04-05T06:45:02.084Z,3.83
2019-04-05T06:50:07.501Z,4.70
2019-04-05T06:55:11.100Z,3.67
2019-04-05T07:00:14.794Z,4.70
2019-04-05T07:05:20.783Z,3.47
2019-04-05T07:10:23.423Z,2.83
2019-04-05T07:15:26.906Z,3.08
2019-04-05T07:20:30.334Z,3.70
2019-04-05T07:25:34.029Z,37.00
2019-04-05T07:30:37.547Z,54.83
2019-04-05T07:35:41.010Z,50.08
2019-04-05T07:40:44.469Z,53.75
2019-04-05T07:45:47.930Z,60.98
2019-04-05T07:50:51.395Z,57.15
2019-04-05T07:55:54.860Z,50.40
2019-04-05T08:00:58.396Z,60.37
2019-04-05T08:06:02.027Z,55.37
2019-04-05T08:11:05.807Z,56.80
2019-04-05T08:16:09.270Z,60.55
2019-04-05T08:21:12.734Z,54.30
2019-04-05T08:26:16.209Z,54.10
2019-04-05T08:31:19.668Z,56.83
2019-04-05T08:36:23.136Z,48.42
2019-04-05T08:41:26.628Z,52.08
2019-04-05T08:46:30.063Z,42.80
2019-04-05T08:51:33.589Z,37.57
2019-04-05T08:56:37.044Z,39.58
2019-04-05T09:01:40.501Z,35.95
2019-04-05T09:06:43.989Z,33.70
2019-04-05T09:11:47.425Z,35.10
2019-04-05T09:16:51.179Z,27.20
2019-04-05T09:21:54.641Z,33.58
2019-04-05T09:26:58.101Z,28.77
2019-04-05T09:32:01.561Z,24.10
2019-04-05T09:37:05.198Z,27.48
2019-04-05T09:42:08.659Z,27.63
2019-04-05T09:47:12.123Z,23.27
2019-04-05T09:52:15.585Z,20.72
2019-04-05T09:57:19.044Z,23.85
2019-04-05T10:02:22.500Z,24.90
2019-04-05T10:07:25.973Z,25.70
2019-04-05T10:12:29.435Z,21.10
2019-04-05T10:17:32.963Z,21.45
2019-04-05T10:22:36.699Z,18.93
2019-04-05T10:27:40.182Z,24.87
2019-04-05T10:32:46.156Z,18.55
2019-04-05T10:37:48.862Z,23.87
2019-04-05T10:42:52.322Z,22.20
2019-04-05T10:47:55.782Z,18.35
2019-04-05T10:52:59.301Z,22.37
2019-04-05T10:58:02.999Z,21.10
2019-04-05T11:03:06.484Z,18.95
2019-04-05T11:08:09.963Z,24.82
2019-04-05T11:13:13.448Z,18.10
2019-04-05T11:18:16.963Z,24.17
2019-04-05T11:23:21.517Z,19.20
2019-04-05T11:28:25.388Z,18.30
2019-04-05T11:33:28.873Z,22.32
2019-04-05T11:38:32.524Z,18.37
2019-04-05T11:43:37.244Z,17.17
2019-04-05T11:48:41.354Z,20.70
2019-04-05T11:53:45.065Z,15.00
2019-04-05T11:58:49.625Z,18.75
2019-04-05T12:03:53.102Z,21.20
2019-04-05T12:08:56.576Z,17.10
2019-04-05T12:14:00.078Z,17.48
2019-04-05T12:19:04.842Z,14.33
2019-04-05T12:24:08.921Z,15.65
2019-04-05T12:29:12.399Z,16.00
2019-04-05T12:34:15.874Z,18.17
2019-04-05T12:39:19.351Z,15.78
2019-04-05T12:44:22.832Z,13.80
2019-04-05T12:49:26.334Z,17.30
2019-04-05T12:54:29.812Z,17.48
2019-04-05T12:59:33.281Z,14.18
2019-04-05T13:04:36.766Z,14.03
2019-04-05T13:09:40.245Z,15.38
2019-04-05T13:14:43.724Z,12.75
2019-04-05T13:19:47.198Z,14.18
2019-04-05T13:24:50.702Z,13.48
2019-04-05T13:29:54.161Z,14.63
2019-04-05T13:34:57.631Z,16.32
2019-04-05T13:40:01.111Z,13.95
2019-04-05T13:45:07.725Z,15.17
2019-04-05T13:50:12.406Z,15.70
2019-04-05T13:55:15.831Z,13.50
2019-04-05T14:00:19.854Z,15.93
2019-04-05T14:05:24.114Z,15.63
2019-04-05T14:10:27.585Z,13.65
2019-04-05T14:15:31.544Z,15.93
2019-04-05T14:20:35.234Z,15.40
2019-04-05T14:25:38.718Z,12.77
2019-04-05T14:30:42.203Z,14.43
2019-04-05T14:35:45.671Z,17.60
2019-04-05T14:40:49.141Z,14.15
2019-04-05T14:45:52.618Z,21.30
2019-04-05T14:50:57.897Z,14.58
2019-04-05T14:56:01.297Z,13.87
2019-04-05T15:01:05.012Z,16.00
2019-04-05T15:06:08.489Z,16.05
2019-04-05T15:11:11.971Z,14.05
2019-04-05T15:16:15.460Z,15.40
2019-04-05T15:21:18.943Z,15.95
2019-04-05T15:26:22.420Z,16.55
2019-04-05T15:31:26.624Z,14.58
2019-04-05T15:36:31.659Z,15.80
2019-04-05T15:41:35.348Z,15.70
2019-04-05T15:46:38.831Z,15.03
2019-04-05T15:51:42.311Z,16.10
2019-04-05T15:56:45.785Z,15.18
2019-04-05T16:01:49.265Z,15.60
2019-04-05T16:06:52.815Z,15.40
2019-04-05T16:11:56.293Z,16.77
2019-04-05T16:16:59.832Z,14.98
2019-04-05T16:22:03.309Z,15.60
2019-04-05T16:27:06.781Z,14.05
2019-04-05T16:32:11.463Z,14.73
2019-04-05T16:37:14.933Z,12.53
2019-04-05T16:42:18.404Z,13.83
2019-04-05T16:47:21.879Z,15.98
2019-04-05T16:52:25.355Z,20.85
2019-04-05T16:57:28.875Z,18.30
2019-04-05T17:02:32.352Z,19.52
2019-04-05T17:07:35.825Z,16.93
2019-04-05T17:12:39.298Z,16.02
2019-04-05T17:17:42.768Z,18.75
2019-04-05T17:22:57.485Z,17.37
2019-04-05T17:27:51.410Z,18.02
2019-04-05T17:32:54.883Z,15.58
2019-04-05T17:37:58.343Z,14.53
2019-04-05T17:43:01.870Z,14.00
2019-04-05T17:48:05.349Z,17.75
2019-04-05T17:53:12.671Z,16.23
2019-04-05T17:58:14.630Z,15.72
2019-04-05T18:03:18.084Z,14.47
2019-04-05T18:08:21.543Z,12.82
2019-04-05T18:13:24.998Z,13.68
2019-04-05T18:18:28.454Z,16.62
2019-04-05T18:23:31.911Z,14.63
2019-04-05T18:28:35.602Z,18.50
2019-04-05T18:33:39.068Z,14.60
2019-04-05T18:38:42.529Z,14.83
2019-04-05T18:43:45.985Z,15.20
2019-04-05T18:48:49.513Z,14.83
2019-04-05T18:53:52.979Z,12.37
2019-04-05T18:58:56.434Z,12.58
2019-04-05T19:03:59.887Z,13.60
2019-04-05T19:09:05.255Z,13.55
2019-04-05T19:14:08.773Z,12.18
2019-04-05T19:19:12.239Z,16.07
2019-04-05T19:24:15.702Z,12.95
2019-04-05T19:29:19.160Z,11.55
2019-04-05T19:49:38.176Z,14.00
2019-04-05T19:54:41.629Z,13.80
2019-04-05T19:59:45.088Z,14.15
2019-04-05T20:04:48.544Z,11.93
2019-04-05T20:09:52.001Z,13.70
2019-04-05T20:14:55.459Z,13.18
2019-04-05T20:19:58.915Z,12.15
2019-04-05T20:25:02.548Z,12.75
2019-04-05T20:30:07.945Z,11.53
2019-04-05T20:35:11.590Z,12.28
2019-04-05T20:40:15.068Z,11.27
2019-04-05T20:45:18.556Z,9.45
2019-04-05T20:50:22.026Z,9.43
2019-04-05T20:55:25.472Z,9.10
2019-04-05T21:00:28.933Z,9.18
2019-04-05T21:05:32.395Z,9.30
2019-04-05T21:10:35.869Z,8.75
2019-04-05T21:15:39.373Z,7.72
2019-04-05T21:20:42.836Z,8.45
2019-04-05T21:25:46.290Z,8.98
2019-04-05T21:30:49.744Z,8.13
2019-04-05T21:35:53.197Z,9.60
2019-04-05T21:40:56.646Z,7.83
2019-04-05T21:46:00.102Z,8.63
2019-04-05T21:51:03.631Z,8.28
2019-04-05T21:56:07.090Z,8.18
2019-04-05T22:01:11.257Z,9.85
2019-04-05T22:06:14.713Z,8.70
2019-04-05T22:11:18.435Z,6.92
2019-04-05T22:16:21.891Z,8.50
2019-04-05T22:21:25.350Z,8.48
2019-04-05T22:26:29.064Z,7.55
2019-04-05T22:31:32.518Z,8.80
2019-04-05T22:36:35.978Z,7.03
2019-04-05T22:41:39.426Z,7.37
2019-04-05T22:46:42.884Z,7.95
2019-04-05T22:51:46.336Z,7.57
2019-04-05T22:56:49.807Z,8.05
2019-04-05T23:01:53.261Z,7.00
2019-04-05T23:06:56.739Z,8.25
2019-04-05T23:12:00.212Z,7.90
2019-04-05T23:17:03.664Z,7.53
2019-04-05T23:22:07.117Z,6.92
2019-04-05T23:27:10.575Z,8.03
2019-04-05T23:32:14.024Z,6.15
2019-04-05T23:37:17.476Z,7.20
2019-04-05T23:42:20.932Z,7.37
2019-04-05T23:47:24.383Z,6.53
2019-04-05T23:52:27.834Z,5.90
2019-04-05T23:57:31.287Z,7.62
